createdAt,value
2022-08-14T00:02:04.846Z,11.40
2022-08-14T00:05:14.500Z,10.80
2022-08-14T00:08:17.891Z,10.90
2022-08-14T00:11:43.663Z,11.40
2022-08-14T00:14:47.353Z,11.50
2022-08-14T00:17:58.784Z,11.50
2022-08-14T00:21:02.011Z,11.60
2022-08-14T00:24:06.257Z,11.20
2022-08-14T00:27:12.606Z,11.30
2022-08-14T00:30:17.369Z,10.90
2022-08-14T00:33:20.507Z,11.00
2022-08-14T00:36:48.639Z,10.70
2022-08-14T00:39:52.593Z,11.10
2022-08-14T00:42:56.625Z,10.90
2022-08-14T00:46:09.081Z,11.10
2022-08-14T00:49:37.975Z,11.20
2022-08-14T00:52:50.949Z,11.40
2022-08-14T00:55:56.516Z,11.20
2022-08-14T00:58:59.861Z,11.00
2022-08-14T01:02:04.292Z,10.90
2022-08-14T01:05:07.772Z,11.00
2022-08-14T01:08:20.670Z,11.10
2022-08-14T01:11:36.120Z,10.30
2022-08-14T01:14:40.859Z,10.70
2022-08-14T01:18:02.397Z,10.80
2022-08-14T01:21:18.437Z,10.90
2022-08-14T01:24:24.823Z,10.10
2022-08-14T01:27:36.621Z,10.60
2022-08-14T01:30:59.449Z,10.10
2022-08-14T01:35:19.618Z,10.60
2022-08-14T01:37:28.873Z,10.80
2022-08-14T01:40:40.883Z,10.80
2022-08-14T01:43:56.371Z,10.30
2022-08-14T01:47:02.055Z,10.20
2022-08-14T01:50:10.180Z,10.40
2022-08-14T01:53:13.287Z,10.20
2022-08-14T01:56:18.856Z,10.00
2022-08-14T01:59:37.825Z,9.90
2022-08-14T02:02:42.611Z,10.00
2022-08-14T02:05:49.692Z,10.30
2022-08-14T02:08:55.259Z,9.30
2022-08-14T02:11:59.390Z,10.00
2022-08-14T02:15:04.917Z,9.90
2022-08-14T02:18:07.963Z,8.80
2022-08-14T02:21:12.577Z,9.90
2022-08-14T02:24:39.827Z,10.10
2022-08-14T02:28:24.890Z,8.80
2022-08-14T02:31:09.038Z,9.00
2022-08-14T02:34:27.451Z,9.60
2022-08-14T02:37:46.405Z,9.80
2022-08-14T02:40:51.850Z,9.70
2022-08-14T02:43:54.916Z,9.20
2022-08-14T02:47:04.228Z,9.90
2022-08-14T02:50:17.795Z,9.80
2022-08-14T02:53:21.036Z,10.20
2022-08-14T02:56:30.239Z,9.80
2022-08-14T02:59:50.239Z,10.00
2022-08-14T03:02:58.488Z,10.10
2022-08-14T03:06:02.479Z,10.60
2022-08-14T03:09:05.655Z,9.80
2022-08-14T03:12:08.836Z,10.20
2022-08-14T03:15:16.470Z,10.50
2022-08-14T03:18:31.387Z,10.10
2022-08-14T03:21:37.254Z,10.30
2022-08-14T03:24:40.408Z,10.50
2022-08-14T03:27:48.556Z,10.90
2022-08-14T03:31:01.870Z,10.10
2022-08-14T03:34:04.948Z,10.70
2022-08-14T03:37:38.762Z,10.40
2022-08-14T03:40:38.441Z,10.30
2022-08-14T03:43:42.272Z,10.60
2022-08-14T03:46:54.802Z,10.00
2022-08-14T03:49:59.774Z,11.80
2022-08-14T03:53:03.499Z,12.70
2022-08-14T03:56:08.051Z,12.50
2022-08-14T03:59:18.064Z,11.80
2022-08-14T04:02:46.853Z,12.10
2022-08-14T04:05:48.815Z,12.40
2022-08-14T04:08:53.389Z,11.20
2022-08-14T04:12:02.170Z,12.60
2022-08-14T04:15:10.917Z,11.70
2022-08-14T04:18:14.294Z,12.00
2022-08-14T04:21:24.556Z,11.20
2022-08-14T04:24:27.490Z,14.00
2022-08-14T04:27:30.798Z,14.00
2022-08-14T04:30:52.045Z,14.20
2022-08-14T04:33:55.564Z,14.80
2022-08-14T04:37:22.039Z,15.50
2022-08-14T04:40:46.121Z,17.00
2022-08-14T04:43:49.075Z,17.80
2022-08-14T04:47:17.173Z,17.30
2022-08-14T04:50:24.450Z,17.70
2022-08-14T04:53:43.174Z,17.60
2022-08-14T04:56:46.720Z,15.50
2022-08-14T04:59:50.787Z,15.40
2022-08-14T05:02:53.892Z,15.10
2022-08-14T05:06:00.026Z,15.10
2022-08-14T05:09:03.484Z,15.20
2022-08-14T05:13:14.049Z,14.40
2022-08-14T05:15:32.718Z,14.60
2022-08-14T05:19:17.800Z,14.50
2022-08-14T05:22:16.811Z,13.90
2022-08-14T05:25:22.021Z,14.10
2022-08-14T05:28:27.255Z,13.90
2022-08-14T05:31:39.724Z,14.40
2022-08-14T05:34:45.733Z,13.20
2022-08-14T05:37:50.144Z,14.50
2022-08-14T05:40:53.390Z,13.80
2022-08-14T05:43:57.048Z,13.60
2022-08-14T05:47:00.998Z,13.80
2022-08-14T05:50:04.289Z,12.80
2022-08-14T05:53:08.469Z,12.90
2022-08-14T05:56:11.713Z,12.70
2022-08-14T05:59:16.757Z,12.70
2022-08-14T06:02:21.832Z,12.00
2022-08-14T06:05:28.678Z,12.40
2022-08-14T06:08:36.327Z,12.20
2022-08-14T06:11:44.600Z,12.60
2022-08-14T06:14:52.895Z,12.70
2022-08-14T06:17:58.919Z,11.80
2022-08-14T06:21:04.056Z,11.90
2022-08-14T06:24:10.524Z,11.40
2022-08-14T06:27:21.824Z,11.70
2022-08-14T06:30:30.052Z,12.00
2022-08-14T06:35:01.542Z,11.40
2022-08-14T06:37:07.792Z,11.70
2022-08-14T06:40:26.257Z,11.40
2022-08-14T06:43:32.627Z,11.60
2022-08-14T06:46:37.299Z,11.20
2022-08-14T06:49:45.045Z,10.50
2022-08-14T06:52:52.088Z,11.30
2022-08-14T06:56:01.114Z,11.10
2022-08-14T06:59:05.955Z,10.90
2022-08-14T07:02:28.914Z,10.40
2022-08-14T07:05:55.368Z,9.40
2022-08-14T07:09:00.670Z,9.20
2022-08-14T07:12:03.970Z,8.90
2022-08-14T07:15:07.844Z,8.90
2022-08-14T07:18:12.177Z,8.50
2022-08-14T07:21:16.137Z,7.40
2022-08-14T07:24:26.521Z,6.70
2022-08-14T07:27:36.163Z,6.10
2022-08-14T07:30:50.653Z,6.20
2022-08-14T07:33:54.215Z,5.70
2022-08-14T07:37:00.710Z,5.70
2022-08-14T07:40:05.891Z,5.50
2022-08-14T07:43:14.494Z,5.40
2022-08-14T07:46:21.174Z,5.10
2022-08-14T07:49:34.437Z,5.30
2022-08-14T07:52:38.339Z,5.30
2022-08-14T07:55:42.980Z,4.70
2022-08-14T07:58:51.537Z,5.00
2022-08-14T08:01:57.390Z,4.70
2022-08-14T08:05:02.667Z,4.30
2022-08-14T08:08:08.425Z,4.20
2022-08-14T08:11:37.402Z,4.20
2022-08-14T08:14:55.780Z,4.70
2022-08-14T08:18:06.500Z,4.60
2022-08-14T08:21:11.274Z,4.30
2022-08-14T08:24:18.484Z,4.60
2022-08-14T08:27:23.779Z,4.80
2022-08-14T08:30:30.288Z,5.10
2022-08-14T08:33:39.162Z,5.40
2022-08-14T08:36:46.568Z,4.90
2022-08-14T08:40:01.486Z,4.90
2022-08-14T08:43:07.426Z,5.00
2022-08-14T08:46:18.523Z,5.20
2022-08-14T08:49:52.590Z,5.60
2022-08-14T08:53:06.875Z,5.20
2022-08-14T08:56:11.693Z,5.50
2022-08-14T08:59:34.308Z,5.30
2022-08-14T09:02:37.488Z,6.30
2022-08-14T09:05:56.245Z,6.50
2022-08-14T09:08:59.181Z,6.50
2022-08-14T09:12:03.351Z,6.40
2022-08-14T09:15:11.895Z,6.40
2022-08-14T09:18:18.520Z,6.50
2022-08-14T09:21:24.405Z,7.30
2022-08-14T09:24:35.317Z,7.80
2022-08-14T09:27:40.288Z,7.10
2022-08-14T09:30:47.863Z,8.00
2022-08-14T09:34:27.270Z,7.60
2022-08-14T09:37:43.678Z,7.50
2022-08-14T09:41:04.796Z,6.80
2022-08-14T09:44:28.198Z,6.30
2022-08-14T09:47:43.580Z,8.20
2022-08-14T09:50:52.949Z,7.40
2022-08-14T09:54:22.512Z,6.50
2022-08-14T09:57:28.929Z,6.90
2022-08-14T10:00:52.794Z,8.20
2022-08-14T10:03:57.404Z,8.00
2022-08-14T10:07:04.331Z,6.90
2022-08-14T10:10:23.402Z,8.20
2022-08-14T10:13:26.974Z,8.10
2022-08-14T10:16:53.872Z,8.10
2022-08-14T10:19:57.999Z,8.20
2022-08-14T10:23:20.419Z,8.10
2022-08-14T10:26:28.265Z,7.80
2022-08-14T10:29:41.066Z,7.20
2022-08-14T10:32:51.154Z,6.10
2022-08-14T10:35:56.334Z,5.60
2022-08-14T10:39:16.299Z,5.40
2022-08-14T10:42:21.204Z,5.30
2022-08-14T10:45:30.221Z,5.10
2022-08-14T10:48:43.401Z,5.60
2022-08-14T10:52:11.604Z,5.70
2022-08-14T10:55:19.484Z,5.80
2022-08-14T10:58:29.842Z,6.50
2022-08-14T11:01:41.382Z,5.90
2022-08-14T11:04:46.029Z,6.50
2022-08-14T11:07:55.416Z,6.00
2022-08-14T11:11:02.204Z,6.50
2022-08-14T11:14:09.426Z,6.30
2022-08-14T11:17:13.408Z,5.80
2022-08-14T11:20:19.390Z,5.80
2022-08-14T11:23:28.394Z,6.50
2022-08-14T11:26:45.011Z,5.70
2022-08-14T11:29:52.843Z,6.10
2022-08-14T11:33:05.390Z,6.00
2022-08-14T11:36:18.340Z,5.60
2022-08-14T11:39:34.609Z,4.80
2022-08-14T11:42:58.562Z,4.30
2022-08-14T11:46:03.766Z,5.40
2022-08-14T11:49:09.578Z,7.20
2022-08-14T11:52:15.910Z,5.20
2022-08-14T11:55:25.536Z,4.30
2022-08-14T11:58:34.793Z,4.90
2022-08-14T12:01:41.055Z,4.30
2022-08-14T12:04:51.453Z,4.80
2022-08-14T12:07:55.343Z,5.10
2022-08-14T12:10:58.810Z,4.90
2022-08-14T12:14:08.847Z,5.00
2022-08-14T12:17:47.630Z,4.20
2022-08-14T12:20:53.741Z,4.00
2022-08-14T12:24:08.473Z,4.40
2022-08-14T12:27:13.281Z,4.20
2022-08-14T12:30:56.650Z,4.20
2022-08-14T12:34:02.799Z,4.00
2022-08-14T12:37:13.172Z,4.50
2022-08-14T12:40:20.939Z,4.20
2022-08-14T12:43:24.052Z,4.00
2022-08-14T12:46:43.667Z,4.40
2022-08-14T12:53:14.432Z,5.00
2022-08-14T12:56:33.000Z,5.00
2022-08-14T12:59:42.733Z,5.30
2022-08-14T13:02:55.383Z,5.30
2022-08-14T13:05:58.576Z,4.30
2022-08-14T13:09:11.113Z,4.50
2022-08-14T13:12:32.632Z,4.60
2022-08-14T13:15:40.430Z,4.20
2022-08-14T13:18:46.915Z,4.70
2022-08-14T13:22:05.011Z,5.10
2022-08-14T13:25:10.573Z,5.10
2022-08-14T13:28:33.808Z,4.60
2022-08-14T13:31:39.487Z,4.70
2022-08-14T13:34:46.041Z,4.60
2022-08-14T13:37:52.211Z,4.50
2022-08-14T13:40:56.100Z,4.70
2022-08-14T13:44:00.601Z,4.40
2022-08-14T13:47:06.998Z,4.40
2022-08-14T13:50:15.683Z,4.70
2022-08-14T13:53:24.783Z,4.90
2022-08-14T13:56:36.357Z,4.50
2022-08-14T13:59:46.532Z,4.50
2022-08-14T14:02:56.442Z,4.10
2022-08-14T14:06:02.428Z,4.20
2022-08-14T14:09:11.342Z,4.50
2022-08-14T14:12:37.396Z,4.60
2022-08-14T14:15:58.612Z,4.50
2022-08-14T14:19:09.173Z,4.50
2022-08-14T14:23:00.771Z,4.70
2022-08-14T14:25:48.516Z,4.60
2022-08-14T14:28:56.530Z,4.80
2022-08-14T14:32:01.072Z,4.80
2022-08-14T14:35:05.237Z,4.70
2022-08-14T14:38:10.036Z,5.20
2022-08-14T14:41:17.502Z,4.80
2022-08-14T14:44:23.640Z,4.70
2022-08-14T14:47:27.243Z,4.70
2022-08-14T14:50:34.443Z,4.80
2022-08-14T14:53:42.515Z,4.70
2022-08-14T14:56:52.425Z,4.70
2022-08-14T14:59:57.553Z,4.80
2022-08-14T15:03:01.650Z,5.10
2022-08-14T15:06:05.462Z,5.10
2022-08-14T15:09:09.074Z,5.10
2022-08-14T15:12:34.814Z,4.90
2022-08-14T15:15:37.309Z,4.90
2022-08-14T15:18:46.914Z,5.50
2022-08-14T15:21:52.211Z,4.70
2022-08-14T15:24:56.597Z,4.80
2022-08-14T15:28:00.974Z,4.80
2022-08-14T15:31:05.723Z,5.10
2022-08-14T15:34:45.654Z,5.10
2022-08-14T15:37:36.526Z,5.10
2022-08-14T15:40:51.524Z,5.20
2022-08-14T15:44:00.079Z,5.00
2022-08-14T15:47:07.287Z,5.00
2022-08-14T15:50:10.387Z,5.00
2022-08-14T15:53:13.442Z,5.40
2022-08-14T15:56:32.985Z,5.60
2022-08-14T15:59:58.731Z,6.00
2022-08-14T16:03:03.076Z,5.60
2022-08-14T16:06:10.824Z,5.80
2022-08-14T16:09:18.456Z,4.90
2022-08-14T16:12:41.857Z,5.50
2022-08-14T16:15:53.591Z,5.30
2022-08-14T16:18:58.945Z,4.80
2022-08-14T16:22:58.552Z,5.00
2022-08-14T16:25:34.284Z,5.30
2022-08-14T16:28:38.010Z,4.80
2022-08-14T16:31:43.785Z,4.70
2022-08-14T16:34:49.268Z,5.00
2022-08-14T16:37:55.706Z,4.90
2022-08-14T16:41:27.279Z,5.00
2022-08-14T16:44:40.992Z,5.00
2022-08-14T16:47:47.828Z,4.70
2022-08-14T16:50:53.507Z,4.60
2022-08-14T16:54:01.656Z,4.70
2022-08-14T16:57:32.468Z,4.80
2022-08-14T17:00:43.979Z,4.80
2022-08-14T17:04:14.882Z,4.50
2022-08-14T17:07:27.452Z,4.70
2022-08-14T17:10:36.112Z,5.10
2022-08-14T17:13:58.595Z,5.40
2022-08-14T17:17:04.264Z,4.60
2022-08-14T17:20:39.206Z,5.40
2022-08-14T17:23:35.225Z,4.40
2022-08-14T17:26:45.675Z,4.90
2022-08-14T17:29:56.720Z,4.70
2022-08-14T17:33:12.773Z,5.00
2022-08-14T17:36:25.079Z,5.10
2022-08-14T17:39:28.090Z,4.90
2022-08-14T17:42:51.839Z,5.20
2022-08-14T17:45:56.638Z,5.30
2022-08-14T17:49:16.350Z,4.50
2022-08-14T17:52:34.682Z,4.80
2022-08-14T17:56:01.867Z,5.10
2022-08-14T17:59:07.054Z,5.60
2022-08-14T18:02:16.490Z,5.40
2022-08-14T18:05:23.263Z,4.80
2022-08-14T18:08:33.586Z,4.80
2022-08-14T18:11:46.669Z,4.80
2022-08-14T18:14:52.790Z,5.10
2022-08-14T18:17:57.611Z,5.40
2022-08-14T18:21:23.906Z,5.00
2022-08-14T18:24:29.907Z,5.30
2022-08-14T18:27:43.494Z,5.50
2022-08-14T18:30:58.194Z,5.40
2022-08-14T18:34:12.304Z,6.10
2022-08-14T18:37:34.146Z,6.20
2022-08-14T18:40:40.243Z,5.70
2022-08-14T18:43:58.992Z,5.90
2022-08-14T18:47:15.135Z,6.00
2022-08-14T18:50:27.192Z,5.70
2022-08-14T18:53:57.005Z,5.90
2022-08-14T18:57:05.265Z,5.60
2022-08-14T19:00:33.819Z,5.80
2022-08-14T19:03:38.121Z,5.90
2022-08-14T19:06:45.008Z,6.00
2022-08-14T19:09:56.362Z,6.60
2022-08-14T19:13:04.861Z,7.60
2022-08-14T19:16:22.914Z,6.20
2022-08-14T19:19:41.209Z,7.20
2022-08-14T19:22:49.950Z,7.20
2022-08-14T19:26:01.424Z,7.20
2022-08-14T19:29:25.742Z,7.80
2022-08-14T19:32:31.921Z,7.80
2022-08-14T19:35:48.490Z,8.40
2022-08-14T19:39:02.032Z,8.00
2022-08-14T19:42:08.649Z,8.10
2022-08-14T19:45:14.815Z,8.40
2022-08-14T19:48:17.752Z,8.20
2022-08-14T19:51:21.863Z,8.20
2022-08-14T19:54:30.972Z,8.50
2022-08-14T19:57:33.908Z,8.70
2022-08-14T20:00:52.179Z,9.10
2022-08-14T20:04:00.431Z,8.80
2022-08-14T20:07:08.938Z,8.40
2022-08-14T20:11:06.403Z,8.70
2022-08-14T20:14:28.141Z,8.10
2022-08-14T20:17:33.303Z,7.30
2022-08-14T20:20:43.574Z,9.40
2022-08-14T20:23:48.206Z,9.80
2022-08-14T20:27:33.343Z,9.20
2022-08-14T20:30:38.058Z,9.30
2022-08-14T20:34:01.716Z,8.90
2022-08-14T20:37:22.089Z,9.60
2022-08-14T20:40:28.271Z,10.10
2022-08-14T20:43:53.249Z,10.00
2022-08-14T20:47:04.143Z,10.40
2022-08-14T20:50:28.178Z,10.30
2022-08-14T20:53:36.530Z,10.80
2022-08-14T20:56:44.912Z,11.20
2022-08-14T20:59:53.400Z,9.50
2022-08-14T21:03:29.201Z,9.90
2022-08-14T21:07:23.584Z,9.30
2022-08-14T21:10:33.758Z,12.50
2022-08-14T21:14:24.673Z,9.90
2022-08-14T21:17:06.139Z,10.10
2022-08-14T21:20:25.376Z,10.20
2022-08-14T21:23:35.904Z,10.70
2022-08-14T21:27:12.741Z,10.00
2022-08-14T21:30:51.045Z,10.60
2022-08-14T21:33:49.602Z,10.70
2022-08-14T21:37:09.850Z,11.20
2022-08-14T21:40:39.933Z,11.10
2022-08-14T21:43:45.901Z,11.40
2022-08-14T21:46:59.241Z,11.60
2022-08-14T21:50:56.435Z,10.40
2022-08-14T21:53:32.906Z,12.10
2022-08-14T21:56:41.571Z,12.20
2022-08-14T22:00:36.061Z,12.00
2022-08-14T22:03:38.591Z,11.60
2022-08-14T22:06:50.529Z,12.80
2022-08-14T22:09:55.297Z,13.10
2022-08-14T22:13:01.326Z,12.70
2022-08-14T22:16:05.014Z,13.80
2022-08-14T22:19:11.249Z,14.90
2022-08-14T22:22:17.009Z,14.60
2022-08-14T22:25:20.076Z,14.20
2022-08-14T22:28:32.644Z,14.40
2022-08-14T22:31:41.389Z,15.20
2022-08-14T22:34:48.515Z,15.30
2022-08-14T22:38:35.986Z,17.10
2022-08-14T22:41:26.691Z,15.50
2022-08-14T22:44:34.595Z,15.20
2022-08-14T22:47:40.789Z,13.40
2022-08-14T22:50:53.226Z,14.70
2022-08-14T22:53:59.180Z,15.40
2022-08-14T22:57:04.277Z,15.00
2022-08-14T23:00:25.061Z,15.70
2022-08-14T23:03:34.227Z,14.90
2022-08-14T23:07:02.902Z,15.00
2022-08-14T23:10:32.398Z,14.80
2022-08-14T23:13:24.719Z,15.20
2022-08-14T23:16:27.827Z,15.20
2022-08-14T23:19:33.557Z,14.60
2022-08-14T23:22:41.628Z,15.30
2022-08-14T23:26:00.720Z,15.90
2022-08-14T23:29:12.928Z,15.40
2022-08-14T23:32:19.113Z,15.50
2022-08-14T23:35:27.052Z,14.80
2022-08-14T23:38:31.370Z,14.60
2022-08-14T23:41:46.427Z,14.50
2022-08-14T23:44:56.818Z,14.00
2022-08-14T23:48:01.433Z,13.60
2022-08-14T23:51:04.513Z,15.10
2022-08-14T23:54:47.469Z,14.90
2022-08-14T23:57:30.915Z,15.10
